createdAt,value
2019-05-10T00:00:13.042Z,68.60
2019-05-10T00:03:01.362Z,68.50
2019-05-10T00:05:49.669Z,69.30
2019-05-10T00:08:37.715Z,69.50
2019-05-10T00:11:09.535Z,68.90
2019-05-10T00:13:48.764Z,68.70
2019-05-10T00:16:18.928Z,69.60
2019-05-10T00:18:48.970Z,68.90
2019-05-10T00:21:19.007Z,68.60
2019-05-10T00:23:49.178Z,69.20
2019-05-10T00:26:19.281Z,69.20
2019-05-10T00:28:49.464Z,68.70
2019-05-10T00:31:19.571Z,68.90
2019-05-10T00:33:49.683Z,69.10
2019-05-10T00:36:19.789Z,68.80
2019-05-10T00:38:49.893Z,70.00
2019-05-10T00:41:20.114Z,70.40
2019-05-10T00:43:50.212Z,70.60
2019-05-10T00:46:20.387Z,70.70
2019-05-10T00:48:50.426Z,70.90
2019-05-10T00:51:20.479Z,70.60
2019-05-10T00:53:50.592Z,70.50
2019-05-10T00:56:20.735Z,70.80
2019-05-10T00:58:50.810Z,70.80
2019-05-10T01:01:20.850Z,70.80
2019-05-10T01:03:50.916Z,71.00
2019-05-10T01:06:21.022Z,71.10
2019-05-10T01:08:51.063Z,71.20
2019-05-10T01:11:21.165Z,71.30
2019-05-10T01:13:51.297Z,71.40
2019-05-10T01:16:21.337Z,71.30
2019-05-10T01:18:51.405Z,71.40
2019-05-10T01:21:21.788Z,71.30
2019-05-10T01:23:51.826Z,71.20
2019-05-10T01:26:21.868Z,71.40
2019-05-10T01:28:51.918Z,72.50
2019-05-10T01:31:22.338Z,71.80
2019-05-10T01:33:52.381Z,72.10
2019-05-10T01:36:24.363Z,72.10
2019-05-10T01:38:54.710Z,72.10
2019-05-10T01:41:24.759Z,72.30
2019-05-10T01:43:54.807Z,72.40
2019-05-10T01:46:24.919Z,72.60
2019-05-10T01:48:54.963Z,72.50
2019-05-10T01:51:27.766Z,72.50
2019-05-10T01:53:56.749Z,72.50
2019-05-10T01:56:26.785Z,72.50
2019-05-10T01:58:56.825Z,72.70
2019-05-10T02:01:26.872Z,72.70
2019-05-10T02:03:56.901Z,73.70
2019-05-10T02:06:27.017Z,72.90
2019-05-10T02:08:57.058Z,72.80
2019-05-10T02:11:27.110Z,73.00
2019-05-10T02:13:57.151Z,73.00
2019-05-10T02:16:27.604Z,73.00
2019-05-10T02:18:57.634Z,72.90
2019-05-10T02:21:27.677Z,72.90
2019-05-10T02:23:57.706Z,72.90
2019-05-10T02:26:27.758Z,72.80
2019-05-10T02:28:57.882Z,72.90
2019-05-10T02:31:28.002Z,72.90
2019-05-10T02:33:58.038Z,72.90
2019-05-10T02:36:28.447Z,72.90
2019-05-10T02:38:58.486Z,73.00
2019-05-10T02:41:28.602Z,73.20
2019-05-10T02:44:00.176Z,73.10
2019-05-10T02:46:30.209Z,73.30
2019-05-10T02:49:00.383Z,73.20
2019-05-10T02:51:30.482Z,73.30
2019-05-10T02:54:01.437Z,73.20
2019-05-10T02:56:32.801Z,73.20
2019-05-10T02:59:03.785Z,73.30
2019-05-10T03:01:37.025Z,73.20
2019-05-10T03:04:07.334Z,73.30
2019-05-10T03:06:39.935Z,73.40
2019-05-10T03:09:10.098Z,73.10
2019-05-10T03:11:49.308Z,73.00
2019-05-10T03:14:20.063Z,73.00
2019-05-10T03:16:52.121Z,73.10
2019-05-10T03:19:22.494Z,73.10
2019-05-10T03:22:01.695Z,73.40
2019-05-10T03:24:31.761Z,73.30
2019-05-10T03:27:02.647Z,73.20
2019-05-10T03:29:32.739Z,73.00
2019-05-10T03:32:02.860Z,73.10
2019-05-10T03:34:32.931Z,73.30
2019-05-10T03:37:03.449Z,73.40
2019-05-10T03:39:33.631Z,73.30
2019-05-10T03:42:04.223Z,73.40
2019-05-10T03:44:34.331Z,73.50
2019-05-10T03:47:04.508Z,73.40
2019-05-10T03:49:34.609Z,73.50
2019-05-10T03:52:04.718Z,73.40
2019-05-10T03:54:34.842Z,73.40
2019-05-10T03:57:12.971Z,73.50
2019-05-10T03:59:36.604Z,73.60
2019-05-10T04:02:07.072Z,73.60
2019-05-10T04:04:37.242Z,73.50
2019-05-10T04:07:07.294Z,73.30
2019-05-10T04:09:37.540Z,73.20
2019-05-10T04:12:07.601Z,73.30
2019-05-10T04:14:37.646Z,73.30
2019-05-10T04:17:07.682Z,73.70
2019-05-10T04:19:37.738Z,73.80
2019-05-10T04:22:07.856Z,74.00
2019-05-10T04:24:37.887Z,74.00
2019-05-10T04:27:07.931Z,74.40
2019-05-10T04:29:37.992Z,74.10
2019-05-10T04:32:08.013Z,74.10
2019-05-10T04:34:38.057Z,73.80
2019-05-10T04:37:08.160Z,73.50
2019-05-10T04:39:38.613Z,73.70
2019-05-10T04:42:08.713Z,74.00
2019-05-10T04:44:38.755Z,73.90
2019-05-10T04:47:08.874Z,74.10
2019-05-10T04:49:39.404Z,74.20
2019-05-10T04:52:09.431Z,74.00
2019-05-10T04:54:39.470Z,73.70
2019-05-10T04:57:09.525Z,73.40
2019-05-10T04:59:39.555Z,73.50
2019-05-10T05:02:09.603Z,73.10
2019-05-10T05:04:40.032Z,73.10
2019-05-10T05:07:10.071Z,73.10
2019-05-10T05:09:40.121Z,73.40
2019-05-10T05:12:10.176Z,73.50
2019-05-10T05:14:40.611Z,73.40
2019-05-10T05:17:10.716Z,73.40
2019-05-10T05:19:41.116Z,73.30
2019-05-10T05:22:12.258Z,73.40
2019-05-10T05:24:42.365Z,73.30
2019-05-10T05:27:12.406Z,73.50
2019-05-10T05:29:42.513Z,73.70
2019-05-10T05:32:13.493Z,73.60
2019-05-10T05:34:43.601Z,74.60
2019-05-10T05:37:13.735Z,73.60
2019-05-10T05:39:43.797Z,73.30
2019-05-10T05:42:13.903Z,73.10
2019-05-10T05:44:44.384Z,73.10
2019-05-10T05:47:14.918Z,72.90
2019-05-10T05:49:44.952Z,72.90
2019-05-10T05:52:15.026Z,73.00
2019-05-10T05:54:45.141Z,72.90
2019-05-10T05:57:15.262Z,72.80
2019-05-10T05:59:48.981Z,72.70
2019-05-10T06:02:17.548Z,72.80
2019-05-10T06:04:48.841Z,72.70
2019-05-10T06:07:19.016Z,72.70
2019-05-10T06:09:49.138Z,72.70
2019-05-10T06:12:22.225Z,72.80
2019-05-10T06:14:52.656Z,73.00
2019-05-10T06:17:23.806Z,72.60
2019-05-10T06:19:54.529Z,72.90
2019-05-10T06:22:24.648Z,72.30
2019-05-10T06:24:54.770Z,73.00
2019-05-10T06:27:24.989Z,72.80
2019-05-10T06:29:55.110Z,72.50
2019-05-10T06:32:25.235Z,72.90
2019-05-10T06:34:55.348Z,71.50
2019-05-10T06:37:25.467Z,70.80
2019-05-10T06:39:55.590Z,71.30
2019-05-10T06:42:28.891Z,70.30
2019-05-10T06:44:57.670Z,70.20
2019-05-10T06:47:27.790Z,69.60
2019-05-10T06:49:58.012Z,69.60
2019-05-10T06:52:29.777Z,68.90
2019-05-10T06:54:59.703Z,69.50
2019-05-10T06:57:29.744Z,67.80
2019-05-10T07:00:06.143Z,67.00
2019-05-10T07:02:32.463Z,66.20
2019-05-10T07:05:04.094Z,65.60
2019-05-10T07:07:44.077Z,65.60
2019-05-10T07:10:15.674Z,64.30
2019-05-10T07:12:39.812Z,63.50
2019-05-10T07:15:10.661Z,62.60
2019-05-10T07:17:43.621Z,61.90
2019-05-10T07:20:12.806Z,61.60
2019-05-10T07:22:42.845Z,61.10
2019-05-10T07:25:13.029Z,60.20
2019-05-10T07:27:44.292Z,59.60
2019-05-10T07:30:18.187Z,59.10
2019-05-10T07:32:48.229Z,59.00
2019-05-10T07:35:18.627Z,58.20
2019-05-10T07:37:51.755Z,57.90
2019-05-10T07:40:20.372Z,58.00
2019-05-10T07:42:50.417Z,57.30
2019-05-10T07:45:25.723Z,56.70
2019-05-10T07:47:52.189Z,55.80
2019-05-10T07:50:22.613Z,55.00
2019-05-10T07:52:52.654Z,54.60
2019-05-10T07:55:27.983Z,53.70
2019-05-10T07:57:59.242Z,53.50
2019-05-10T08:00:28.206Z,53.40
2019-05-10T08:03:12.427Z,53.00
2019-05-10T08:05:29.993Z,53.50
2019-05-10T08:08:00.043Z,52.80
2019-05-10T08:10:30.078Z,52.10
2019-05-10T08:13:03.214Z,51.50
2019-05-10T08:15:34.751Z,51.10
2019-05-10T08:18:03.533Z,50.50
2019-05-10T08:20:46.519Z,49.90
2019-05-10T08:23:06.251Z,49.70
2019-05-10T08:25:41.049Z,48.50
2019-05-10T08:28:08.115Z,48.70
2019-05-10T08:30:51.877Z,49.10
2019-05-10T08:33:15.485Z,48.50
2019-05-10T08:35:46.551Z,48.00
2019-05-10T08:38:16.890Z,47.90
2019-05-10T08:40:46.923Z,48.50
2019-05-10T08:43:17.165Z,48.70
2019-05-10T08:45:49.459Z,46.10
2019-05-10T08:48:19.122Z,45.90
2019-05-10T08:50:54.022Z,45.70
2019-05-10T08:53:22.947Z,46.70
2019-05-10T08:55:52.710Z,47.00
2019-05-10T08:58:31.376Z,45.40
2019-05-10T09:01:15.387Z,45.60
2019-05-10T09:03:26.494Z,44.70
2019-05-10T09:05:56.661Z,44.50
2019-05-10T09:08:28.503Z,45.30
2019-05-10T09:10:58.354Z,45.50
2019-05-10T09:13:28.713Z,44.80
2019-05-10T09:16:02.419Z,45.40
2019-05-10T09:18:33.117Z,44.60
2019-05-10T09:21:09.156Z,44.80
2019-05-10T09:23:34.937Z,43.90
2019-05-10T09:26:10.446Z,44.60
2019-05-10T09:28:36.754Z,45.30
2019-05-10T09:31:18.916Z,44.70
2019-05-10T09:33:43.302Z,45.00
2019-05-10T09:36:12.289Z,45.30
2019-05-10T09:38:45.687Z,45.00
2019-05-10T09:41:13.405Z,44.60
2019-05-10T09:43:48.842Z,44.90
2019-05-10T09:46:15.203Z,45.00
2019-05-10T09:48:45.357Z,45.50
2019-05-10T09:51:19.241Z,45.90
2019-05-10T09:53:48.544Z,45.60
2019-05-10T09:56:18.913Z,45.80
2019-05-10T09:58:48.990Z,45.80
2019-05-10T10:01:21.785Z,46.70
2019-05-10T10:03:50.836Z,47.40
2019-05-10T10:06:21.006Z,47.80
2019-05-10T10:08:53.306Z,47.40
2019-05-10T10:11:22.968Z,47.80
2019-05-10T10:13:59.656Z,47.60
2019-05-10T10:16:24.666Z,48.30
2019-05-10T10:18:54.772Z,48.70
2019-05-10T10:21:30.475Z,49.90
2019-05-10T10:23:57.411Z,49.80
2019-05-10T10:26:28.198Z,49.90
2019-05-10T10:29:00.155Z,49.20
2019-05-10T10:31:33.308Z,48.60
2019-05-10T10:34:03.123Z,48.30
2019-05-10T10:36:33.497Z,48.70
2019-05-10T10:39:04.865Z,48.50
2019-05-10T10:41:34.978Z,48.70
2019-05-10T10:44:05.030Z,48.70
2019-05-10T10:46:35.198Z,48.40
2019-05-10T10:49:05.669Z,48.30
2019-05-10T10:51:37.778Z,49.10
2019-05-10T10:54:07.571Z,50.00
2019-05-10T10:56:38.342Z,49.70
2019-05-10T10:59:08.390Z,49.10
2019-05-10T11:01:49.903Z,48.80
2019-05-10T11:04:10.549Z,49.10
2019-05-10T11:06:40.662Z,49.20
2019-05-10T11:09:10.794Z,49.20
2019-05-10T11:11:44.419Z,49.60
2019-05-10T11:14:12.502Z,50.00
2019-05-10T11:16:46.707Z,49.60
2019-05-10T11:19:15.788Z,50.00
2019-05-10T11:21:46.053Z,49.60
2019-05-10T11:24:18.585Z,49.40
2019-05-10T11:26:47.752Z,49.60
2019-05-10T11:29:25.401Z,49.90
2019-05-10T11:32:10.728Z,49.80
2019-05-10T11:34:21.745Z,50.30
2019-05-10T11:36:51.854Z,49.70
2019-05-10T11:39:26.455Z,48.80
2019-05-10T11:42:02.405Z,48.80
2019-05-10T11:44:26.018Z,48.90
2019-05-10T11:46:56.089Z,49.50
2019-05-10T11:49:26.272Z,49.70
2019-05-10T11:51:58.711Z,49.50
2019-05-10T11:54:31.696Z,48.80
2019-05-10T11:57:06.123Z,49.00
2019-05-10T11:59:33.764Z,49.90
2019-05-10T12:02:09.014Z,50.00
2019-05-10T12:07:12.037Z,49.70
2019-05-10T12:09:42.541Z,50.00
2019-05-10T12:12:12.235Z,49.50
2019-05-10T12:14:43.658Z,49.40
2019-05-10T12:17:14.545Z,49.80
2019-05-10T12:19:50.459Z,50.40
2019-05-10T12:22:17.531Z,50.90
2019-05-10T12:25:06.134Z,50.00
2019-05-10T12:26:16.688Z,49.40
2019-05-10T12:27:28.605Z,50.30
2019-05-10T12:29:55.878Z,50.60
2019-05-10T12:32:26.965Z,49.80
2019-05-10T12:34:56.608Z,49.90
2019-05-10T12:37:26.246Z,50.00
2019-05-10T12:39:56.286Z,50.10
2019-05-10T12:42:26.318Z,50.50
2019-05-10T12:44:56.361Z,50.20
2019-05-10T12:47:26.385Z,50.70
2019-05-10T12:50:02.064Z,50.40
2019-05-10T12:52:29.013Z,50.20
2019-05-10T12:55:00.251Z,50.20
2019-05-10T12:57:30.378Z,50.40
2019-05-10T13:00:00.415Z,50.00
2019-05-10T13:02:30.445Z,50.40
2019-05-10T13:05:00.559Z,50.70
2019-05-10T13:07:30.589Z,50.60
2019-05-10T13:10:04.209Z,50.40
2019-05-10T13:12:36.921Z,49.10
2019-05-10T13:15:06.938Z,49.60
2019-05-10T13:17:36.970Z,49.90
2019-05-10T13:20:08.645Z,50.30
2019-05-10T13:22:39.568Z,49.70
2019-05-10T13:25:09.889Z,49.20
2019-05-10T13:27:39.890Z,48.90
2019-05-10T13:30:10.549Z,49.60
2019-05-10T13:32:40.585Z,49.40
2019-05-10T13:35:11.750Z,49.20
2019-05-10T13:37:41.777Z,49.10
2019-05-10T13:40:12.240Z,49.10
2019-05-10T13:42:45.809Z,49.20
2019-05-10T13:45:14.133Z,48.90
2019-05-10T13:47:44.162Z,49.20
2019-05-10T13:50:14.441Z,49.50
2019-05-10T13:52:44.465Z,49.30
2019-05-10T13:55:14.654Z,48.20
2019-05-10T13:57:44.679Z,47.40
2019-05-10T14:00:15.250Z,48.20
2019-05-10T14:02:45.282Z,48.70
2019-05-10T14:05:17.667Z,48.50
2019-05-10T14:07:51.996Z,48.80
2019-05-10T14:10:23.364Z,48.70
2019-05-10T14:12:50.659Z,48.60
2019-05-10T14:15:20.857Z,48.80
2019-05-10T14:17:50.892Z,48.60
2019-05-10T14:20:25.293Z,48.30
2019-05-10T14:22:56.032Z,48.40
2019-05-10T14:25:29.475Z,48.40
2019-05-10T14:27:56.534Z,47.80
2019-05-10T14:30:26.561Z,48.30
2019-05-10T14:32:56.601Z,48.40
2019-05-10T14:35:26.617Z,48.00
2019-05-10T14:38:06.922Z,48.10
2019-05-10T14:40:30.633Z,47.10
2019-05-10T14:43:00.477Z,47.60
2019-05-10T14:45:30.503Z,47.80
2019-05-10T14:48:00.542Z,47.90
2019-05-10T14:50:30.640Z,47.10
2019-05-10T14:53:00.680Z,46.40
2019-05-10T14:55:34.648Z,46.70
2019-05-10T14:58:02.347Z,47.20
2019-05-10T15:00:32.444Z,47.50
2019-05-10T15:03:03.815Z,47.60
2019-05-10T15:05:36.357Z,47.80
2019-05-10T15:08:05.634Z,47.90
2019-05-10T15:10:39.435Z,47.90
2019-05-10T15:13:07.459Z,47.40
2019-05-10T15:15:38.734Z,47.90
2019-05-10T15:18:08.897Z,48.10
2019-05-10T15:20:38.933Z,47.70
2019-05-10T15:23:08.983Z,47.20
2019-05-10T15:25:55.437Z,47.40
2019-05-10T15:28:10.669Z,47.60
2019-05-10T15:30:45.754Z,47.30
2019-05-10T15:33:12.414Z,47.00
2019-05-10T15:35:45.582Z,46.60
2019-05-10T15:38:14.170Z,46.70
2019-05-10T15:40:45.865Z,46.70
2019-05-10T15:43:16.875Z,46.90
2019-05-10T15:45:52.455Z,46.80
2019-05-10T15:48:19.786Z,46.90
2019-05-10T15:50:49.849Z,46.90
2019-05-10T15:53:25.593Z,46.90
2019-05-10T15:55:51.611Z,47.20
2019-05-10T15:58:21.632Z,47.30
2019-05-10T16:00:51.656Z,47.20
2019-05-10T16:03:21.687Z,46.90
2019-05-10T16:06:00.404Z,47.00
2019-05-10T16:08:23.882Z,46.90
2019-05-10T16:10:55.030Z,46.40
2019-05-10T16:13:25.334Z,48.40
2019-05-10T16:15:57.559Z,47.80
2019-05-10T16:18:33.430Z,46.60
2019-05-10T16:20:59.820Z,46.70
2019-05-10T16:23:29.916Z,47.70
2019-05-10T16:26:00.445Z,47.70
2019-05-10T16:28:30.771Z,47.30
2019-05-10T16:31:00.890Z,47.70
2019-05-10T16:33:31.009Z,47.80
2019-05-10T16:36:01.067Z,47.50
2019-05-10T16:38:31.147Z,47.00
2019-05-10T16:41:01.266Z,47.50
2019-05-10T16:43:31.418Z,47.10
2019-05-10T16:46:01.475Z,46.90
2019-05-10T16:48:31.727Z,47.00
2019-05-10T16:51:03.755Z,46.80
2019-05-10T16:53:37.728Z,46.70
2019-05-10T16:56:05.216Z,46.50
2019-05-10T16:58:35.301Z,46.50
2019-05-10T17:01:05.409Z,47.40
2019-05-10T17:03:35.438Z,47.00
2019-05-10T17:06:05.796Z,47.50
2019-05-10T17:08:38.644Z,47.70
2019-05-10T17:11:10.110Z,48.10
2019-05-10T17:13:41.629Z,47.20
2019-05-10T17:16:16.384Z,47.80
2019-05-10T17:18:43.301Z,48.00
2019-05-10T17:21:13.329Z,48.40
2019-05-10T17:23:46.862Z,48.40
2019-05-10T17:26:15.013Z,48.00
2019-05-10T17:28:45.050Z,48.30
2019-05-10T17:31:15.082Z,48.20
2019-05-10T17:33:45.113Z,48.80
2019-05-10T17:36:19.767Z,49.60
2019-05-10T17:38:53.195Z,49.00
2019-05-10T17:41:19.442Z,49.20
2019-05-10T17:43:50.545Z,49.20
2019-05-10T17:46:21.142Z,49.20
2019-05-10T17:48:51.310Z,49.60
2019-05-10T17:51:21.408Z,49.20
2019-05-10T17:53:54.897Z,49.40
2019-05-10T17:56:23.205Z,49.40
2019-05-10T17:58:54.305Z,49.80
2019-05-10T18:01:24.337Z,49.80
2019-05-10T18:03:55.343Z,50.90
2019-05-10T18:06:25.374Z,50.40
2019-05-10T18:08:55.414Z,50.50
2019-05-10T18:11:25.455Z,50.90
2019-05-10T18:13:55.501Z,50.80
2019-05-10T18:16:25.540Z,52.20
2019-05-10T18:18:55.932Z,53.70
2019-05-10T18:21:25.971Z,53.90
2019-05-10T18:23:58.335Z,54.40
2019-05-10T18:26:28.350Z,55.00
2019-05-10T18:28:58.377Z,55.20
2019-05-10T18:31:28.413Z,55.50
2019-05-10T18:34:00.173Z,55.60
2019-05-10T18:36:50.457Z,55.70
2019-05-10T18:39:01.962Z,55.90
2019-05-10T18:41:32.260Z,55.70
2019-05-10T18:44:02.293Z,55.60
2019-05-10T18:46:32.322Z,56.10
2019-05-10T18:49:03.153Z,56.70
2019-05-10T18:51:34.611Z,57.00
2019-05-10T18:54:05.067Z,57.30
2019-05-10T18:56:35.107Z,57.50
2019-05-10T18:59:07.482Z,57.50
2019-05-10T19:01:38.669Z,57.70
2019-05-10T19:04:14.033Z,58.00
2019-05-10T19:06:44.207Z,58.50
2019-05-10T19:09:12.663Z,58.40
2019-05-10T19:11:42.746Z,58.20
2019-05-10T19:14:13.359Z,58.40
2019-05-10T19:16:43.556Z,58.20
2019-05-10T19:19:13.650Z,58.60
2019-05-10T19:21:44.070Z,58.70
2019-05-10T19:24:14.102Z,58.80
2019-05-10T19:26:45.237Z,58.90
2019-05-10T19:29:15.262Z,59.30
2019-05-10T19:31:45.372Z,59.30
2019-05-10T19:34:17.202Z,59.50
2019-05-10T19:36:47.047Z,59.60
2019-05-10T19:39:17.223Z,59.90
2019-05-10T19:41:50.353Z,60.10
2019-05-10T19:44:20.387Z,60.00
2019-05-10T19:46:50.491Z,60.20
2019-05-10T19:49:20.590Z,60.30
2019-05-10T19:51:50.622Z,60.60
2019-05-10T19:54:21.312Z,61.00
2019-05-10T19:56:55.252Z,61.10
2019-05-10T19:59:25.767Z,61.30
2019-05-10T20:01:55.793Z,62.20
2019-05-10T20:04:25.903Z,61.40
2019-05-10T20:06:55.931Z,61.70
2019-05-10T20:09:25.961Z,61.80
2019-05-10T20:11:56.082Z,61.90
2019-05-10T20:14:26.121Z,62.40
2019-05-10T20:16:56.151Z,62.50
2019-05-10T20:19:26.262Z,62.20
2019-05-10T20:21:56.286Z,62.50
2019-05-10T20:24:29.099Z,62.60
2019-05-10T20:26:59.490Z,62.80
2019-05-10T20:29:29.584Z,62.70
2019-05-10T20:31:59.651Z,62.80
2019-05-10T20:34:29.789Z,62.60
2019-05-10T20:36:59.826Z,62.60
2019-05-10T20:39:29.849Z,62.60
2019-05-10T20:41:59.890Z,62.60
2019-05-10T20:44:29.987Z,62.50
2019-05-10T20:47:00.161Z,62.50
2019-05-10T20:49:33.074Z,62.60
2019-05-10T20:52:03.310Z,62.40
2019-05-10T20:54:33.435Z,62.20
2019-05-10T20:57:03.554Z,62.10
2019-05-10T20:59:33.582Z,62.10
2019-05-10T21:02:03.618Z,62.10
2019-05-10T21:04:33.749Z,61.90
2019-05-10T21:07:03.800Z,62.10
2019-05-10T21:09:33.827Z,62.10
2019-05-10T21:12:04.043Z,62.10
2019-05-10T21:14:34.073Z,62.30
2019-05-10T21:17:04.533Z,62.10
2019-05-10T21:19:34.549Z,62.40
2019-05-10T21:22:04.725Z,62.30
2019-05-10T21:24:35.191Z,62.30
2019-05-10T21:27:06.302Z,62.50
2019-05-10T21:29:36.337Z,62.40
2019-05-10T21:32:06.571Z,62.60
2019-05-10T21:34:36.752Z,62.60
2019-05-10T21:37:06.783Z,62.80
2019-05-10T21:39:37.145Z,62.50
2019-05-10T21:42:07.162Z,62.40
2019-05-10T21:44:37.200Z,62.30
2019-05-10T21:47:07.227Z,62.40
2019-05-10T21:49:37.261Z,62.30
2019-05-10T21:52:07.367Z,62.30
2019-05-10T21:54:37.404Z,62.30
2019-05-10T21:57:07.486Z,62.20
2019-05-10T21:59:37.563Z,62.20
2019-05-10T22:02:07.802Z,62.30
2019-05-10T22:04:37.837Z,62.20
2019-05-10T22:07:09.011Z,62.30
2019-05-10T22:09:39.089Z,62.30
2019-05-10T22:12:09.189Z,62.30
2019-05-10T22:14:39.235Z,62.40
2019-05-10T22:17:09.654Z,62.40
2019-05-10T22:19:39.681Z,62.40
2019-05-10T22:22:09.919Z,62.70
2019-05-10T22:24:39.991Z,62.60
2019-05-10T22:27:09.993Z,62.50
2019-05-10T22:29:40.015Z,62.60
2019-05-10T22:32:10.122Z,62.50
2019-05-10T22:34:40.203Z,62.60
2019-05-10T22:37:10.311Z,62.50
2019-05-10T22:39:40.340Z,62.80
2019-05-10T22:42:10.450Z,62.90
2019-05-10T22:44:40.480Z,62.80
2019-05-10T22:47:10.587Z,62.80
2019-05-10T22:49:40.677Z,62.90
2019-05-10T22:52:10.714Z,62.90
2019-05-10T22:54:40.742Z,63.40
2019-05-10T22:57:10.837Z,63.70
2019-05-10T22:59:40.899Z,63.80
2019-05-10T23:02:10.947Z,63.70
2019-05-10T23:04:41.309Z,63.60
2019-05-10T23:07:11.334Z,63.70
2019-05-10T23:09:41.362Z,63.90
2019-05-10T23:12:11.398Z,64.20
2019-05-10T23:14:41.562Z,64.30
2019-05-10T23:17:12.672Z,64.60
2019-05-10T23:19:42.700Z,64.70
2019-05-10T23:22:12.829Z,64.80
2019-05-10T23:24:45.783Z,65.00
2019-05-10T23:27:15.821Z,64.90
2019-05-10T23:29:45.853Z,65.30
2019-05-10T23:32:16.229Z,64.40
2019-05-10T23:34:46.634Z,65.00
2019-05-10T23:37:16.671Z,65.00
2019-05-10T23:39:46.700Z,64.80
2019-05-10T23:42:16.754Z,65.00
2019-05-10T23:44:46.771Z,65.30
2019-05-10T23:47:18.392Z,65.30
2019-05-10T23:49:48.478Z,65.30
2019-05-10T23:52:18.605Z,65.30
2019-05-10T23:54:48.658Z,65.30
2019-05-10T23:57:18.693Z,65.70
2019-05-10T23:59:49.870Z,65.60
